Time;durP1;ratioP1;P1;durP2;ratioP2;P2;SDS_P1;SDS_P2;PMS_P1;PMS_P2;Temp;Humidity;BMP_temperature;BMP_pressure;BME280_temperature;BME280_humidity;BME280_pressure;Samples;Min_cycle;Max_cycle;Signal;HPM_P1;HPM_P2
2023/06/16 00:01:30;;;;;;;0.00;0.00;;;;;;;17.80;53.85;100747.00;5002454;28;20375;-73
2023/06/16 00:03:56;;;;;;;0.00;0.00;;;;;;;17.72;54.31;100749.66;4995726;28;20048;-72
2023/06/16 00:06:27;;;;;;;0.00;0.00;;;;;;;17.64;54.50;100740.13;4987766;28;20026;-71
2023/06/16 00:08:57;;;;;;;0.00;0.00;;;;;;;17.56;54.43;100730.56;4973468;28;20029;-71
2023/06/16 00:11:23;;;;;;;0.00;0.00;;;;;;;17.53;54.86;100739.47;4984641;28;20120;-75
2023/06/16 00:13:54;;;;;;;0.00;0.00;;;;;;;17.46;55.14;100741.81;4992258;28;20041;-71
2023/06/16 00:16:20;;;;;;;0.00;0.00;;;;;;;17.45;55.50;100737.44;4982930;28;20014;-74
2023/06/16 00:18:51;;;;;;;0.00;0.00;;;;;;;17.35;55.50;100738.44;4975539;28;20026;-73
2023/06/16 00:21:19;;;;;;;0.00;0.00;;;;;;;17.32;55.45;100738.22;4999104;28;20478;-70
2023/06/16 00:23:47;;;;;;;0.00;0.00;;;;;;;17.30;55.07;100746.00;4999455;28;20105;-72
2023/06/16 00:26:13;;;;;;;0.00;0.00;;;;;;;17.22;55.95;100734.53;4982074;28;20108;-72
2023/06/16 00:28:38;;;;;;;0.00;0.00;;;;;;;17.22;55.60;100734.53;4972806;28;20038;-71
2023/06/16 00:31:04;;;;;;;0.00;0.00;;;;;;;17.18;56.30;100736.25;5009819;28;20130;-73
2023/06/16 00:33:30;;;;;;;0.00;0.00;;;;;;;17.15;56.62;100734.09;4999202;28;20403;-70
2023/06/16 00:35:55;;;;;;;0.00;0.00;;;;;;;17.07;56.79;100732.84;4998531;28;20037;-70
2023/06/16 00:38:21;;;;;;;0.00;0.00;;;;;;;17.03;56.57;100731.81;5003963;28;20069;-70
2023/06/16 00:40:47;;;;;;;0.00;0.00;;;;;;;17.03;56.71;100731.81;4991310;28;20401;-70
2023/06/16 00:43:12;;;;;;;0.00;0.00;;;;;;;16.96;57.41;100736.91;5002353;28;20513;-72
2023/06/16 00:45:37;;;;;;;0.00;0.00;;;;;;;16.91;56.96;100735.03;4978004;28;20049;-73
2023/06/16 00:48:03;;;;;;;0.00;0.00;;;;;;;16.90;56.89;100738.09;4988367;28;20022;-75
2023/06/16 00:50:29;;;;;;;0.00;0.00;;;;;;;16.84;57.43;100728.25;5002021;28;20028;-72
2023/06/16 00:52:55;;;;;;;0.00;0.00;;;;;;;16.73;57.49;100713.75;4995721;28;20022;-72
2023/06/16 00:55:23;;;;;;;0.00;0.00;;;;;;;16.75;57.48;100737.19;4993015;28;20048;-71
2023/06/16 00:57:50;;;;;;;0.00;0.00;;;;;;;16.70;57.08;100736.44;4997370;28;20030;-72
2023/06/16 01:00:17;;;;;;;0.00;0.00;;;;;;;16.65;57.43;100731.03;5004862;28;20113;-72
2023/06/16 01:02:46;;;;;;;0.00;0.00;;;;;;;16.63;57.17;100733.25;4997975;28;20041;-73
2023/06/16 01:05:17;;;;;;;0.00;0.00;;;;;;;16.65;56.96;100731.03;5002320;28;20029;-72
2023/06/16 01:08:01;;;;;;;0.00;0.00;;;;;;;16.67;57.03;100734.28;4997025;28;20034;-73
2023/06/16 01:10:27;;;;;;;;;;;;;;;16.66;57.13;100732.63;4995498;28;20038;-73
2023/06/16 01:13:07;;;;;;;0.00;0.00;;;;;;;16.60;57.63;100739.38;4998852;28;19909;-74
2023/06/16 01:15:35;;;;;;;0.00;0.00;;;;;;;16.53;57.72;100734.25;5019836;28;20029;-72
2023/06/16 01:18:01;;;;;;;0.00;0.00;;;;;;;16.48;58.18;100732.34;4996506;28;20030;-75
2023/06/16 01:20:51;;;;;;;0.00;0.00;;;;;;;16.49;57.79;100734.00;5002211;28;20494;-73
2023/06/16 01:23:35;;;;;;;0.00;0.00;;;;;;;16.48;58.13;100743.38;5015731;28;20037;-73
2023/06/16 01:26:02;;;;;;;0.00;0.00;;;;;;;16.40;57.91;100728.31;4998133;28;20030;-73
2023/06/16 01:28:31;;;;;;;0.00;0.00;;;;;;;16.39;57.87;100734.16;4997976;28;20045;-73
2023/06/16 01:30:59;;;;;;;0.00;0.00;;;;;;;16.38;57.75;100735.25;5003150;28;20040;-72
2023/06/16 01:33:26;;;;;;;0.00;0.00;;;;;;;16.33;57.54;100736.16;5009182;28;20500;-74
2023/06/16 01:35:53;;;;;;;0.00;0.00;;;;;;;16.35;58.02;100747.72;4996882;28;20400;-72
2023/06/16 01:38:21;;;;;;;0.00;0.00;;;;;;;16.31;58.03;100738.41;5001948;28;20189;-73
2023/06/16 01:40:50;;;;;;;0.00;0.00;;;;;;;16.37;57.36;100744.66;5003169;28;20368;-72
2023/06/16 01:43:16;;;;;;;0.00;0.00;;;;;;;16.30;57.63;100730.41;5009260;28;20041;-72
2023/06/16 01:45:43;;;;;;;0.00;0.00;;;;;;;16.35;57.40;100741.38;4990499;28;20048;-73
2023/06/16 01:48:09;;;;;;;0.00;0.00;;;;;;;16.31;57.27;100734.81;5011081;28;20048;-73
2023/06/16 01:50:35;;;;;;;0.00;0.00;;;;;;;16.31;57.78;100732.03;4990514;28;20164;-72
2023/06/16 01:53:00;;;;;;;0.00;0.00;;;;;;;16.28;57.87;100738.16;5002383;28;20033;-72
2023/06/16 01:55:26;;;;;;;0.00;0.00;;;;;;;16.27;57.99;100736.53;4982133;28;20056;-72
2023/06/16 01:57:53;;;;;;;0.00;0.00;;;;;;;16.25;58.05;100733.22;5006374;28;20038;-71
2023/06/16 02:00:40;;;;;;;0.00;0.00;;;;;;;16.23;57.75;100737.09;5006197;28;20044;-73
2023/06/16 02:03:11;;;;;;;0.00;0.00;;;;;;;16.17;57.78;100732.78;5004199;28;20032;-74
2023/06/16 02:05:42;;;;;;;0.00;0.00;;;;;;;16.14;57.96;100736.13;5002556;28;20022;-71
2023/06/16 02:08:09;;;;;;;0.00;0.00;;;;;;;16.12;58.11;100741.13;5001665;28;20566;-72
2023/06/16 02:10:34;;;;;;;0.00;0.00;;;;;;;16.07;58.60;100738.44;4998263;28;20475;-71
2023/06/16 02:13:00;;;;;;;0.00;0.00;;;;;;;16.00;58.64;100737.97;4995117;28;20128;-72
2023/06/16 02:15:27;;;;;;;0.00;0.00;;;;;;;16.03;58.91;100740.13;4991903;28;20469;-71
2023/06/16 02:17:57;;;;;;;0.00;0.00;;;;;;;15.99;59.05;100736.31;5007556;28;20130;-71
2023/06/16 02:20:25;;;;;;;0.00;0.00;;;;;;;15.95;58.73;100735.28;5015812;28;20057;-73
2023/06/16 02:22:51;;;;;;;0.00;0.00;;;;;;;15.93;58.82;100737.50;4999955;28;20037;-73
2023/06/16 02:25:17;;;;;;;0.00;0.00;;;;;;;15.90;58.96;100727.88;5003761;28;20034;-72
2023/06/16 02:27:43;;;;;;;0.00;0.00;;;;;;;15.92;59.20;100735.88;5001645;28;20026;-73
2023/06/16 02:30:10;;;;;;;0.00;0.00;;;;;;;15.87;59.31;100729.31;4983549;28;20621;-74
2023/06/16 02:32:37;;;;;;;0.00;0.00;;;;;;;15.86;59.30;100733.16;5001798;28;20041;-75
2023/06/16 02:35:04;;;;;;;0.00;0.00;;;;;;;15.84;59.35;100727.13;4999632;28;20371;-73
2023/06/16 02:37:29;;;;;;;0.00;0.00;;;;;;;15.82;59.12;100732.09;5021987;28;20038;-74
2023/06/16 02:39:55;;;;;;;0.00;0.00;;;;;;;15.77;59.45;100729.41;4988267;28;20037;-75
2023/06/16 02:42:20;;;;;;;0.00;0.00;;;;;;;15.77;59.50;100725.78;5003990;28;20042;-74
2023/06/16 02:44:46;;;;;;;0.00;0.00;;;;;;;15.77;59.46;100740.44;5007045;28;20046;-75
2023/06/16 02:47:13;;;;;;;0.00;0.00;;;;;;;15.76;59.59;100726.94;4993952;28;20072;-73
2023/06/16 02:49:42;;;;;;;0.00;0.00;;;;;;;15.74;59.37;100730.00;5006305;28;20061;-75
2023/06/16 02:52:09;;;;;;;0.00;0.00;;;;;;;15.70;59.57;100723.41;4991798;28;20093;-73
2023/06/16 02:54:35;;;;;;;0.00;0.00;;;;;;;15.68;59.90;100720.09;5010189;28;20458;-73
2023/06/16 02:57:00;;;;;;;0.00;0.00;;;;;;;15.64;59.95;100716.31;5007523;28;20117;-73
2023/06/16 02:59:26;;;;;;;0.00;0.00;;;;;;;15.62;60.01;100711.06;5009338;28;20022;-74
2023/06/16 03:01:51;;;;;;;0.00;0.00;;;;;;;15.64;59.86;100716.31;4999131;28;20028;-72
2023/06/16 03:04:17;;;;;;;0.00;0.00;;;;;;;15.63;59.88;100715.47;5001776;28;20131;-74
2023/06/16 03:06:44;;;;;;;0.00;0.00;;;;;;;15.59;59.89;100708.91;4999348;28;20117;-73
2023/06/16 03:09:11;;;;;;;0.00;0.00;;;;;;;15.59;59.92;100706.16;4997663;28;20037;-74
2023/06/16 03:11:37;;;;;;;0.00;0.00;;;;;;;15.59;60.01;100706.16;5005086;28;20117;-72
2023/06/16 03:14:02;;;;;;;0.00;0.00;;;;;;;15.57;60.27;100713.09;4997837;28;20224;-73
2023/06/16 03:16:28;;;;;;;0.00;0.00;;;;;;;15.56;60.02;100711.44;4978860;28;20038;-72
2023/06/16 03:18:54;;;;;;;0.00;0.00;;;;;;;15.48;60.11;100708.22;4999076;28;20054;-71
2023/06/16 03:21:20;;;;;;;0.00;0.00;;;;;;;15.45;60.43;100711.56;5000399;28;20133;-71
2023/06/16 03:23:46;;;;;;;0.00;0.00;;;;;;;15.42;60.51;100705.78;4977825;28;20729;-72
2023/06/16 03:26:12;;;;;;;0.00;0.00;;;;;;;15.41;60.37;100715.19;4987976;28;20040;-71
2023/06/16 03:28:38;;;;;;;0.00;0.00;;;;;;;15.38;60.69;100713.81;5003707;28;20128;-70
2023/06/16 03:31:04;;;;;;;0.00;0.00;;;;;;;15.34;60.78;100716.31;5000138;28;21630;-71
2023/06/16 03:33:31;;;;;;;0.00;0.00;;;;;;;15.29;60.63;100704.56;5017949;28;20704;-71
2023/06/16 03:35:57;;;;;;;0.00;0.00;;;;;;;15.28;60.82;100708.41;4996550;28;20037;-72
2023/06/16 03:38:22;;;;;;;0.00;0.00;;;;;;;15.22;61.02;100702.13;5013375;28;20042;-72
2023/06/16 03:40:47;;;;;;;0.00;0.00;;;;;;;15.19;61.03;100695.28;4973343;28;20038;-72
2023/06/16 03:43:13;;;;;;;0.00;0.00;;;;;;;15.21;60.71;100705.19;4993352;28;20038;-72
2023/06/16 03:45:38;;;;;;;0.00;0.00;;;;;;;15.16;61.09;100701.38;5000383;28;20036;-71
2023/06/16 03:48:04;;;;;;;0.00;0.00;;;;;;;15.16;60.86;100709.63;4983942;28;20038;-72
2023/06/16 03:50:30;;;;;;;0.00;0.00;;;;;;;15.15;61.01;100702.47;5005163;28;20516;-72
2023/06/16 03:52:55;;;;;;;0.00;0.00;;;;;;;15.12;61.16;100700.28;5005680;28;20076;-72
2023/06/16 03:55:21;;;;;;;0.00;0.00;;;;;;;15.10;60.95;100699.78;4971871;28;20029;-72
2023/06/16 03:57:46;;;;;;;0.00;0.00;;;;;;;15.06;61.14;100693.19;5010018;28;20038;-72
2023/06/16 04:00:12;;;;;;;0.00;0.00;;;;;;;15.10;61.23;100698.94;5004937;28;20030;-72
2023/06/16 04:02:38;;;;;;;0.00;0.00;;;;;;;15.06;61.13;100695.94;5005000;28;20022;-70
2023/06/16 04:05:03;;;;;;;0.00;0.00;;;;;;;15.05;61.39;100686.03;5003948;28;20034;-73
2023/06/16 04:07:30;;;;;;;0.00;0.00;;;;;;;15.03;61.48;100691.03;4994837;28;20084;-71
2023/06/16 04:09:56;;;;;;;0.00;0.00;;;;;;;15.08;61.30;100695.66;5002032;28;20033;-70
2023/06/16 04:12:22;;;;;;;0.00;0.00;;;;;;;15.03;61.34;100691.03;4995530;28;20036;-73
2023/06/16 04:14:47;;;;;;;0.00;0.00;;;;;;;15.06;61.31;100704.22;4995197;28;20034;-73
2023/06/16 04:17:12;;;;;;;0.00;0.00;;;;;;;15.03;61.35;100687.47;5003671;28;20026;-74
2023/06/16 04:19:38;;;;;;;0.00;0.00;;;;;;;15.08;61.41;100693.72;4997383;28;20464;-72
2023/06/16 04:22:03;;;;;;;0.00;0.00;;;;;;;15.13;61.33;100698.38;4989849;28;20033;-71
2023/06/16 04:24:29;;;;;;;0.00;0.00;;;;;;;15.14;61.27;100695.34;5000009;28;20034;-73
2023/06/16 04:26:58;;;;;;;0.00;0.00;;;;;;;15.15;61.26;100687.88;4998792;28;20077;-73
2023/06/16 04:29:25;;;;;;;0.00;0.00;;;;;;;15.19;61.21;100687.00;4990475;28;20037;-73
2023/06/16 04:31:51;;;;;;;0.00;0.00;;;;;;;15.23;60.88;100681.75;4998356;28;20747;-73
2023/06/16 04:34:17;;;;;;;0.00;0.00;;;;;;;15.30;61.34;100684.16;4988185;28;20053;-72
2023/06/16 04:36:44;;;;;;;0.00;0.00;;;;;;;15.38;61.04;100689.03;4983483;28;20427;-72
2023/06/16 04:39:10;;;;;;;0.00;0.00;;;;;;;15.43;60.86;100694.47;5002419;28;20028;-73
2023/06/16 04:41:36;;;;;;;0.00;0.00;;;;;;;15.49;60.97;100689.72;4995310;28;20467;-73
2023/06/16 04:44:04;;;;;;;0.00;0.00;;;;;;;15.53;61.14;100694.34;4984422;28;20041;-73
2023/06/16 04:46:30;;;;;;;0.00;0.00;;;;;;;15.57;60.98;100686.34;5002986;28;20648;-73
2023/06/16 04:48:56;;;;;;;0.00;0.00;;;;;;;15.67;60.95;100693.69;5001614;28;20030;-71
2023/06/16 04:51:22;;;;;;;0.00;0.00;;;;;;;15.72;60.83;100693.59;5007548;28;20029;-72
2023/06/16 04:53:48;;;;;;;0.00;0.00;;;;;;;15.75;60.96;100690.25;5002414;28;20026;-71
2023/06/16 04:56:13;;;;;;;0.00;0.00;;;;;;;15.79;61.00;100688.59;5004660;28;20120;-71
2023/06/16 04:58:39;;;;;;;0.00;0.00;;;;;;;15.85;60.64;100690.16;5001420;28;20124;-72
2023/06/16 05:01:04;;;;;;;0.00;0.00;;;;;;;15.88;60.72;100683.25;4999839;28;20077;-72
2023/06/16 05:03:30;;;;;;;0.00;0.00;;;;;;;15.99;60.45;100697.69;4988194;28;20041;-72
2023/06/16 05:05:55;;;;;;;0.00;0.00;;;;;;;15.99;60.59;100692.19;4995763;28;20030;-74
2023/06/16 05:08:21;;;;;;;0.00;0.00;;;;;;;16.07;60.36;100693.47;4998261;28;20034;-73
2023/06/16 05:10:46;;;;;;;0.00;0.00;;;;;;;16.10;60.30;100690.13;5005808;28;20038;-72
2023/06/16 05:13:12;;;;;;;0.00;0.00;;;;;;;16.17;60.27;100691.41;5017093;28;20129;-72
2023/06/16 05:15:37;;;;;;;0.00;0.00;;;;;;;16.22;60.56;100696.84;4995859;28;20061;-73
2023/06/16 05:18:03;;;;;;;0.00;0.00;;;;;;;16.26;60.21;100699.81;5001785;28;20042;-78
2023/06/16 05:20:31;;;;;;;0.00;0.00;;;;;;;16.18;60.62;100683.97;4983471;28;20100;-76
2023/06/16 05:22:57;;;;;;;0.00;0.00;;;;;;;16.17;60.37;100688.63;4981938;28;20124;-76
2023/06/16 05:25:45;;;;;;;0.00;0.00;;;;;;;16.21;60.32;100689.69;5011256;28;20472;-76
2023/06/16 05:28:18;;;;;;;0.00;0.00;;;;;;;16.20;60.20;100681.72;4998291;28;20502;-79
2023/06/16 05:31:30;;;;;;;;;;;;;;;;;;;;;
2023/06/16 05:33:59;;;;;;;0.00;0.00;;;;;;;16.31;60.02;100672.19;5001113;28;20038;-80
2023/06/16 05:39:42;;;;;;;0.00;0.00;;;;;;;16.43;60.07;100673.63;5001849;28;20033;-78
2023/06/16 05:42:16;;;;;;;0.00;0.00;;;;;;;16.49;60.23;100672.47;4992001;28;20052;-79
2023/06/16 05:45:10;;;;;;;0.00;0.00;;;;;;;16.72;60.04;100692.81;4991981;28;20034;-79
2023/06/16 05:47:54;;;;;;;;;;;;;;;;;;;;;
2023/06/16 05:50:38;;;;;;;0.00;0.00;;;;;;;17.06;59.40;100713.81;4998660;28;20382;-79
2023/06/16 05:56:09;;;;;;;;;;;;;;;;;;;;;
2023/06/16 05:59:04;;;;;;;;;;;;;;;;;;;;;
2023/06/16 06:01:30;;;;;;;;;;;;;;;17.56;59.32;100711.22;4996556;28;20045;-78
2023/06/16 06:03:55;;;;;;;0.00;0.00;;;;;;;17.65;58.74;100696.69;4999736;28;20013;-79
2023/06/16 06:06:21;;;;;;;0.00;0.00;;;;;;;17.72;58.16;100681.31;4999276;28;20025;-77
2023/06/16 06:08:56;;;;;;;;;;;;;;;;;;;;;
2023/06/16 06:11:22;;;;;;;0.00;0.00;;;;;;;18.27;57.63;100713.66;4999062;28;20514;-76
2023/06/16 06:13:48;;;;;;;0.00;0.00;;;;;;;18.34;57.30;100710.47;4993044;28;20054;-77
2023/06/16 06:16:13;;;;;;;0.00;0.00;;;;;;;18.59;56.88;100714.59;5000783;28;20025;-76
2023/06/16 06:18:43;;;;;;;0.00;0.00;;;;;;;18.70;56.86;100708.81;4999893;28;20447;-76
2023/06/16 06:21:09;;;;;;;0.00;0.00;;;;;;;18.74;56.52;100684.91;4983072;28;20129;-77
2023/06/16 06:23:34;;;;;;;0.00;0.00;;;;;;;19.11;56.44;100707.81;4990827;28;20536;-78
2023/06/16 06:25:59;;;;;;;0.00;0.00;;;;;;;19.26;55.86;100696.34;4997263;28;20065;-79
2023/06/16 06:28:35;;;;;;;0.00;0.00;;;;;;;19.35;55.28;100685.28;4992069;28;20027;-79
2023/06/16 06:31:03;;;;;;;0.00;0.00;;;;;;;19.48;55.37;100683.56;4997054;28;20030;-79
2023/06/16 06:33:36;;;;;;;0.00;0.00;;;;;;;19.79;54.67;100711.28;5017014;28;20027;-79
2023/06/16 06:36:01;;;;;;;0.00;0.00;;;;;;;19.91;54.57;100707.88;5015671;28;20034;-77
2023/06/16 06:38:26;;;;;;;0.00;0.00;;;;;;;20.05;54.51;100719.66;5005101;28;20107;-76
2023/06/16 06:40:52;;;;;;;0.00;0.00;;;;;;;19.91;54.31;100696.78;5020728;28;20149;-77
2023/06/16 06:43:20;;;;;;;0.00;0.00;;;;;;;20.00;54.00;100711.47;5006026;28;20483;-78
2023/06/16 06:45:48;;;;;;;0.00;0.00;;;;;;;20.07;54.12;100710.22;5015598;28;20037;-77
2023/06/16 06:48:16;;;;;;;0.00;0.00;;;;;;;20.18;54.00;100711.50;5002550;28;20026;-78
2023/06/16 06:50:42;;;;;;;0.00;0.00;;;;;;;20.21;53.66;100713.66;5012585;28;20169;-79
2023/06/16 06:53:07;;;;;;;0.00;0.00;;;;;;;20.15;53.79;100695.50;4976970;28;20026;-78
2023/06/16 06:55:42;;;;;;;0.00;0.00;;;;;;;20.32;53.38;100720.53;5015103;28;20038;-77
2023/06/16 06:58:15;;;;;;;0.00;0.00;;;;;;;20.25;53.34;100702.72;5007581;28;20482;-78
2023/06/16 07:00:42;;;;;;;0.00;0.00;;;;;;;20.33;53.21;100701.91;4997942;28;20030;-76
2023/06/16 07:03:08;;;;;;;0.00;0.00;;;;;;;20.45;53.13;100709.59;4999215;28;20030;-76
2023/06/16 07:05:38;;;;;;;0.00;0.00;;;;;;;20.42;53.15;100688.03;5014921;28;21821;-77
2023/06/16 07:08:07;;;;;;;0.00;0.00;;;;;;;20.49;52.80;100686.41;5001617;28;20472;-77
2023/06/16 07:10:33;;;;;;;0.00;0.00;;;;;;;20.84;52.96;100718.94;4992784;28;20034;-77
2023/06/16 07:12:58;;;;;;;0.00;0.00;;;;;;;20.85;52.60;100707.50;5008121;28;20101;-75
2023/06/16 07:15:24;;;;;;;0.00;0.00;;;;;;;21.00;52.46;100714.50;5012985;28;20058;-77
2023/06/16 07:17:50;;;;;;;0.00;0.00;;;;;;;21.08;52.15;100715.63;5003330;28;20065;-78
2023/06/16 07:20:15;;;;;;;0.00;0.00;;;;;;;21.24;52.07;100716.72;4993580;28;20022;-80
2023/06/16 07:22:45;;;;;;;0.00;0.00;;;;;;;21.38;52.07;100721.28;4981523;28;20037;-78
2023/06/16 07:25:11;;;;;;;0.00;0.00;;;;;;;21.54;51.85;100722.38;5009592;28;20368;-77
2023/06/16 07:27:39;;;;;;;0.00;0.00;;;;;;;21.57;51.37;100709.78;5003062;28;20037;-78
2023/06/16 07:30:06;;;;;;;0.00;0.00;;;;;;;21.73;51.27;100707.25;4995527;28;20076;-79
2023/06/16 07:32:33;;;;;;;0.00;0.00;;;;;;;21.94;51.19;100724.81;4963356;28;20030;-79
2023/06/16 07:34:58;;;;;;;0.00;0.00;;;;;;;21.94;50.59;100707.31;4990936;28;20126;-78
2023/06/16 07:37:24;;;;;;;0.00;0.00;;;;;;;22.18;51.07;100733.69;4988984;28;20441;-76
2023/06/16 07:39:49;;;;;;;0.00;0.00;;;;;;;22.20;50.34;100715.50;5010529;28;20035;-78
2023/06/16 07:42:17;;;;;;;0.00;0.00;;;;;;;22.37;50.12;100722.94;4991605;28;20112;-78
2023/06/16 07:44:42;;;;;;;0.00;0.00;;;;;;;22.56;49.44;100724.44;5008113;28;20041;-77
2023/06/16 07:47:10;;;;;;;0.00;0.00;;;;;;;22.82;50.08;100741.75;4999216;28;20026;-79
2023/06/16 07:49:38;;;;;;;0.00;0.00;;;;;;;22.79;49.16;100722.94;5001018;28;20025;-77
2023/06/16 07:52:04;;;;;;;0.00;0.00;;;;;;;22.89;48.74;100735.63;4998363;28;20084;-78
2023/06/16 07:54:35;;;;;;;0.00;0.00;;;;;;;23.00;48.67;100730.44;5007244;28;20038;-75
2023/06/16 07:57:02;;;;;;;0.00;0.00;;;;;;;23.21;47.79;100736.00;5004110;28;20114;-77
2023/06/16 07:59:33;;;;;;;0.00;0.00;;;;;;;23.53;47.88;100753.84;4983899;28;20381;-78
2023/06/16 08:01:58;;;;;;;0.00;0.00;;;;;;;23.70;47.05;100741.66;4986398;28;20545;-77
2023/06/16 08:04:29;;;;;;;0.00;0.00;;;;;;;23.98;46.93;100754.16;4983393;28;20087;-70
2023/06/16 08:06:54;;;;;;;0.00;0.00;;;;;;;24.13;46.45;100756.22;4998343;28;20030;-73
2023/06/16 08:09:20;;;;;;;0.00;0.00;;;;;;;24.23;45.85;100754.94;4991736;28;20383;-70
2023/06/16 08:11:45;;;;;;;0.00;0.00;;;;;;;24.07;45.43;100754.84;4992702;28;20034;-72
2023/06/16 08:14:11;;;;;;;0.00;0.00;;;;;;;24.16;45.27;100752.72;4987498;28;20440;-71
2023/06/16 08:16:36;;;;;;;0.00;0.00;;;;;;;24.42;45.44;100743.16;4991558;28;20063;-71
2023/06/16 08:19:02;;;;;;;0.00;0.00;;;;;;;24.47;43.97;100756.88;5004541;28;20650;-71
2023/06/16 08:21:27;;;;;;;0.00;0.00;;;;;;;24.61;44.21;100755.72;4992465;28;20054;-71
2023/06/16 08:23:52;;;;;;;0.00;0.00;;;;;;;24.67;43.71;100743.13;4993876;28;20441;-69
2023/06/16 08:26:18;;;;;;;0.00;0.00;;;;;;;24.82;43.15;100739.56;4987694;28;20038;-70
2023/06/16 08:28:44;;;;;;;0.00;0.00;;;;;;;25.02;42.98;100745.31;4992385;28;20068;-70
2023/06/16 08:31:10;;;;;;;0.00;0.00;;;;;;;25.06;42.44;100726.66;4988747;28;21907;-71
2023/06/16 08:33:35;;;;;;;0.00;0.00;;;;;;;25.35;41.89;100745.06;4994005;28;20038;-72
2023/06/16 08:36:01;;;;;;;0.00;0.00;;;;;;;25.22;40.96;100746.28;4992449;28;20029;-72
2023/06/16 08:38:27;;;;;;;0.00;0.00;;;;;;;25.16;40.57;100740.13;4991009;28;20049;-73
2023/06/16 08:40:52;;;;;;;0.00;0.00;;;;;;;24.74;40.03;100735.75;4981858;28;20058;-71
2023/06/16 08:43:22;;;;;;;0.00;0.00;;;;;;;24.66;40.13;100735.91;5004261;28;20034;-71
2023/06/16 08:45:49;;;;;;;0.00;0.00;;;;;;;24.52;39.85;100748.25;4997915;28;20556;-73
2023/06/16 08:48:15;;;;;;;0.00;0.00;;;;;;;24.77;39.37;100741.81;4993595;28;20038;-72
2023/06/16 08:50:41;;;;;;;0.00;0.00;;;;;;;24.96;39.58;100727.16;4994756;28;20499;-72
2023/06/16 08:53:11;;;;;;;0.00;0.00;;;;;;;24.90;38.04;100735.81;5015167;28;20030;-69
2023/06/16 08:55:40;;;;;;;0.00;0.00;;;;;;;25.03;38.34;100732.97;4993229;28;20041;-72
2023/06/16 08:58:09;;;;;;;0.00;0.00;;;;;;;25.31;38.48;100737.75;4979465;28;20451;-71
2023/06/16 09:00:34;;;;;;;0.00;0.00;;;;;;;25.27;38.25;100732.81;4983900;28;20114;-71
2023/06/16 09:03:00;;;;;;;0.00;0.00;;;;;;;25.50;37.84;100740.63;5007069;28;20544;-70
2023/06/16 09:05:26;;;;;;;0.00;0.00;;;;;;;25.72;37.74;100735.59;4998516;28;20044;-71
2023/06/16 09:07:51;;;;;;;0.00;0.00;;;;;;;25.91;37.18;100738.44;4998204;28;20034;-71
2023/06/16 09:10:18;;;;;;;0.00;0.00;;;;;;;25.91;36.65;100730.03;4984678;28;20037;-71
2023/06/16 09:12:44;;;;;;;0.00;0.00;;;;;;;26.06;36.42;100736.03;4992229;28;20034;-71
2023/06/16 09:15:10;;;;;;;0.00;0.00;;;;;;;26.20;35.80;100738.34;5009876;28;20029;-71
2023/06/16 09:17:37;;;;;;;0.00;0.00;;;;;;;25.68;35.19;100734.69;4990340;28;20376;-70
2023/06/16 09:20:06;;;;;;;0.00;0.00;;;;;;;25.57;36.29;100728.81;4993223;28;20083;-70
2023/06/16 09:22:32;;;;;;;0.00;0.00;;;;;;;25.66;35.89;100721.03;5003075;28;20680;-71
2023/06/16 09:25:06;;;;;;;0.00;0.00;;;;;;;25.87;35.29;100719.94;4995115;28;20042;-72
2023/06/16 09:27:44;;;;;;;0.00;0.00;;;;;;;26.12;34.73;100731.75;5012170;28;20038;-70
2023/06/16 09:30:13;;;;;;;0.00;0.00;;;;;;;26.29;34.60;100730.53;4994344;28;20032;-71
2023/06/16 09:32:38;;;;;;;0.00;0.00;;;;;;;26.17;33.78;100725.03;4996176;28;20029;-69
2023/06/16 09:35:20;;;;;;;0.00;0.00;;;;;;;26.33;34.34;100730.63;5008414;28;20045;-71
2023/06/16 09:37:50;;;;;;;0.00;0.00;;;;;;;26.52;33.84;100727.84;4990585;28;20361;-71
2023/06/16 09:40:16;;;;;;;0.00;0.00;;;;;;;26.61;33.67;100716.41;4995922;28;20045;-71
2023/06/16 09:42:44;;;;;;;0.00;0.00;;;;;;;26.80;33.79;100729.66;4998463;28;20450;-72
2023/06/16 09:45:11;;;;;;;0.00;0.00;;;;;;;27.04;33.33;100727.69;4999035;28;20165;-71
2023/06/16 09:47:38;;;;;;;0.00;0.00;;;;;;;27.23;33.42;100716.44;4997067;28;20113;-71
2023/06/16 09:50:06;;;;;;;0.00;0.00;;;;;;;27.23;32.76;100715.63;4995032;28;20030;-71
2023/06/16 09:52:34;;;;;;;0.00;0.00;;;;;;;27.19;32.47;100721.19;5002385;28;20052;-69
2023/06/16 09:55:01;;;;;;;0.00;0.00;;;;;;;27.25;32.52;100713.25;5004609;28;20464;-71
2023/06/16 09:57:27;;;;;;;0.00;0.00;;;;;;;27.46;32.76;100724.09;4990748;28;20025;-69
2023/06/16 09:59:53;;;;;;;0.00;0.00;;;;;;;27.68;32.30;100720.44;5003995;28;20040;-70
2023/06/16 10:02:21;;;;;;;0.00;0.00;;;;;;;27.88;32.03;100717.56;5001697;28;20376;-70
2023/06/16 10:04:51;;;;;;;0.00;0.00;;;;;;;27.88;31.65;100717.56;5005393;28;20113;-69
2023/06/16 10:07:17;;;;;;;0.00;0.00;;;;;;;27.83;31.67;100717.88;4993845;28;20145;-69
2023/06/16 10:09:47;;;;;;;0.00;0.00;;;;;;;28.09;31.54;100719.09;4994619;28;20071;-68
2023/06/16 10:12:14;;;;;;;0.00;0.00;;;;;;;27.88;30.18;100714.75;5000120;28;20117;-68
2023/06/16 10:14:41;;;;;;;0.00;0.00;;;;;;;27.92;30.56;100701.56;5003633;28;20057;-69
2023/06/16 10:17:10;;;;;;;0.00;0.00;;;;;;;28.07;30.14;100708.25;5006031;28;20022;-71
2023/06/16 10:19:44;;;;;;;0.00;0.00;;;;;;;27.87;30.04;100713.94;5000259;28;20030;-67
2023/06/16 10:22:11;;;;;;;0.00;0.00;;;;;;;28.04;30.21;100715.44;5007263;28;20113;-68
2023/06/16 10:24:39;;;;;;;0.00;0.00;;;;;;;28.32;30.43;100708.59;4989955;28;20057;-69
2023/06/16 10:27:06;;;;;;;0.00;0.00;;;;;;;28.69;30.86;100705.09;5000336;28;20441;-68
2023/06/16 10:29:32;;;;;;;0.00;0.00;;;;;;;29.15;30.32;100708.78;4994381;28;20034;-68
2023/06/16 10:32:07;;;;;;;0.00;0.00;;;;;;;29.36;29.65;100709.00;5002650;28;20018;-68
2023/06/16 10:34:34;;;;;;;0.00;0.00;;;;;;;29.50;30.09;100710.34;5012424;28;20506;-70
2023/06/16 10:37:01;;;;;;;0.00;0.00;;;;;;;29.80;29.53;100704.53;5000262;28;20026;-69
2023/06/16 10:39:27;;;;;;;0.00;0.00;;;;;;;30.00;28.67;100699.47;5000633;28;20531;-69
2023/06/16 10:42:00;;;;;;;0.00;0.00;;;;;;;30.19;28.31;100698.38;4996344;28;20049;-70
2023/06/16 10:44:27;;;;;;;0.00;0.00;;;;;;;30.35;28.25;100711.38;5011395;28;20033;-68
2023/06/16 10:47:08;;;;;;;0.00;0.00;;;;;;;30.55;27.37;100706.22;4987934;28;20525;-68
2023/06/16 10:50:00;;;;;;;0.00;0.00;;;;;;;30.92;27.13;100696.69;5000397;28;20476;-68
2023/06/16 10:52:28;;;;;;;0.00;0.00;;;;;;;31.47;27.07;100699.22;4985520;28;20483;-68
2023/06/16 10:54:55;;;;;;;0.00;0.00;;;;;;;32.00;26.45;100693.94;4995496;28;20037;-69
2023/06/16 10:57:21;;;;;;;0.00;0.00;;;;;;;32.38;25.49;100710.44;4988126;28;20152;-68
2023/06/16 10:59:56;;;;;;;0.00;0.00;;;;;;;33.01;25.67;100699.22;4983157;28;20378;-67
2023/06/16 11:02:27;;;;;;;0.00;0.00;;;;;;;33.80;24.69;100687.28;4999095;28;20033;-69
2023/06/16 11:05:08;;;;;;;0.00;0.00;;;;;;;34.68;23.31;100696.44;5004821;28;20036;-71
2023/06/16 11:07:41;;;;;;;0.00;0.00;;;;;;;35.80;22.47;100695.56;4998913;28;20084;-69
2023/06/16 11:10:08;;;;;;;0.00;0.00;;;;;;;37.67;21.05;100691.47;4996948;28;20026;-69
2023/06/16 11:12:34;;;;;;;0.00;0.00;;;;;;;39.19;19.16;100690.78;4995125;28;20510;-68
2023/06/16 11:14:59;;;;;;;0.00;0.00;;;;;;;40.36;18.10;100691.22;5005801;28;20034;-70
2023/06/16 11:17:25;;;;;;;0.00;0.00;;;;;;;41.47;16.80;100683.16;4993286;28;20053;-71
2023/06/16 11:19:55;;;;;;;0.00;0.00;;;;;;;42.96;16.18;100673.06;5002136;28;20037;-69
2023/06/16 11:22:33;;;;;;;0.00;0.00;;;;;;;44.31;14.41;100673.56;4999914;28;20199;-69
2023/06/16 11:25:00;;;;;;;0.00;0.00;;;;;;;45.07;14.35;100673.00;5003216;28;20022;-68
2023/06/16 11:27:27;;;;;;;0.00;0.00;;;;;;;46.47;13.79;100678.09;4996585;28;20527;-69
2023/06/16 11:29:56;;;;;;;0.00;0.00;;;;;;;47.20;12.79;100669.94;5000708;28;20136;-68
2023/06/16 11:32:23;;;;;;;0.00;0.00;;;;;;;47.68;12.41;100661.72;4991782;28;20177;-70
2023/06/16 11:34:54;;;;;;;0.00;0.00;;;;;;;48.44;11.92;100662.16;4994753;28;20069;-69
2023/06/16 11:37:20;;;;;;;0.00;0.00;;;;;;;47.57;12.03;100662.50;4986646;28;20066;-69
2023/06/16 11:39:45;;;;;;;0.00;0.00;;;;;;;47.59;12.04;100664.88;4995477;28;20461;-69
2023/06/16 11:42:15;;;;;;;0.00;0.00;;;;;;;48.69;11.45;100655.31;4982754;28;20065;-69